Time;durP1;ratioP1;P1;durP2;ratioP2;P2;SDS_P1;SDS_P2;PMS_P1;PMS_P2;Temp;Humidity;BMP_temperature;BMP_pressure;BME280_temperature;BME280_humidity;BME280_pressure;Samples;Min_cycle;Max_cycle;Signal;HPM_P1;HPM_P2
2021/10/29 00:00:35;;;;;;;35.53;19.10;;;12.30;74.90;;;;;;5055811;28;20040;-38
2021/10/29 00:03:05;;;;;;;31.05;19.95;;;12.30;75.10;;;;;;5055585;28;20196;-40
2021/10/29 00:05:32;;;;;;;37.20;20.70;;;12.20;75.20;;;;;;5055816;28;20021;-34
2021/10/29 00:07:58;;;;;;;30.52;17.50;;;12.20;75.50;;;;;;5055467;28;20096;-35
2021/10/29 00:10:24;;;;;;;29.52;19.60;;;12.20;75.60;;;;;;5055686;28;20052;-35
2021/10/29 00:12:50;;;;;;;33.83;19.48;;;12.20;75.70;;;;;;5059463;28;20342;-39
2021/10/29 00:15:16;;;;;;;34.22;19.67;;;12.20;75.80;;;;;;5059880;28;20037;-35
2021/10/29 00:17:42;;;;;;;35.38;21.35;;;12.20;76.10;;;;;;5059422;28;20143;-39
2021/10/29 00:20:08;;;;;;;35.72;20.75;;;12.20;76.30;;;;;;5059619;28;20025;-40
2021/10/29 00:22:34;;;;;;;29.27;18.52;;;12.20;76.40;;;;;;5058956;28;20035;-35
2021/10/29 00:25:00;;;;;;;30.15;18.45;;;12.20;76.60;;;;;;5059602;28;20024;-34
2021/10/29 00:27:26;;;;;;;35.60;20.17;;;12.20;76.60;;;;;;5059009;28;20082;-40
2021/10/29 00:29:54;;;;;;;34.85;20.75;;;12.20;76.80;;;;;;5059341;28;20033;-41
2021/10/29 00:32:20;;;;;;;37.97;21.45;;;12.20;76.90;;;;;;5059064;28;20065;-40
2021/10/29 00:34:45;;;;;;;31.33;18.95;;;12.30;77.10;;;;;;5059332;28;20342;-35
2021/10/29 00:37:11;;;;;;;30.83;19.00;;;12.30;77.10;;;;;;5058832;28;20104;-40
2021/10/29 00:39:37;;;;;;;30.83;20.00;;;12.30;77.20;;;;;;5059031;28;20037;-35
2021/10/29 00:42:03;;;;;;;34.25;19.52;;;12.30;77.40;;;;;;5058708;28;20021;-35
2021/10/29 00:44:28;;;;;;;30.73;19.85;;;12.30;77.50;;;;;;5058894;28;20040;-34
2021/10/29 00:46:54;;;;;;;32.10;20.00;;;12.30;77.60;;;;;;5058698;28;20025;-40
2021/10/29 00:49:21;;;;;;;34.25;18.58;;;12.40;77.80;;;;;;5058866;28;20086;-35
2021/10/29 00:51:47;;;;;;;32.38;20.30;;;12.40;78.00;;;;;;5058511;28;20025;-41
2021/10/29 00:54:16;;;;;;;33.38;20.55;;;12.40;78.00;;;;;;5058739;28;20029;-34
2021/10/29 00:56:43;;;;;;;32.53;20.05;;;12.40;78.00;;;;;;5058433;28;20108;-34
2021/10/29 00:59:09;;;;;;;30.58;20.23;;;12.40;77.90;;;;;;5058597;28;20071;-34
2021/10/29 01:01:35;;;;;;;35.67;20.63;;;12.50;78.00;;;;;;5058183;28;20053;-39
2021/10/29 01:04:01;;;;;;;33.95;19.52;;;12.50;78.00;;;;;;5058724;28;20035;-34
2021/10/29 01:06:28;;;;;;;29.33;18.33;;;12.50;77.90;;;;;;5058300;28;20039;-40
2021/10/29 01:08:54;;;;;;;31.95;19.40;;;12.60;78.00;;;;;;5058956;28;20033;-38
2021/10/29 01:11:20;;;;;;;32.05;19.42;;;12.60;78.00;;;;;;5058271;28;20029;-33
2021/10/29 01:13:49;;;;;;;28.40;18.05;;;12.60;77.90;;;;;;5058319;28;20029;-39
2021/10/29 01:16:16;;;;;;;29.00;17.67;;;12.60;77.90;;;;;;5058283;28;20508;-38
2021/10/29 01:18:43;;;;;;;28.40;19.48;;;12.70;77.90;;;;;;5058311;28;20378;-34
2021/10/29 01:21:09;;;;;;;30.33;18.98;;;12.70;77.90;;;;;;5058136;28;20051;-38
2021/10/29 01:23:36;;;;;;;39.65;19.80;;;12.70;77.90;;;;;;5057549;28;20072;-33
2021/10/29 01:26:11;;;;;;;29.45;19.20;;;12.70;77.80;;;;;;5058062;28;20112;-33
2021/10/29 01:28:37;;;;;;;29.75;19.45;;;12.70;77.80;;;;;;5057927;28;20082;-40
2021/10/29 01:31:04;;;;;;;32.65;19.35;;;12.70;77.70;;;;;;5058259;28;20024;-35
2021/10/29 01:33:30;;;;;;;30.73;18.17;;;12.70;77.70;;;;;;5057520;28;20028;-39
2021/10/29 01:35:57;;;;;;;28.33;18.92;;;12.70;77.50;;;;;;5057831;28;20036;-35
2021/10/29 01:38:32;;;;;;;28.52;17.60;;;12.70;77.70;;;;;;5057973;28;20313;-34
2021/10/29 01:40:58;;;;;;;31.70;19.45;;;12.70;77.50;;;;;;5057761;28;20043;-35
2021/10/29 01:43:24;;;;;;;26.75;18.45;;;12.80;77.50;;;;;;5057754;28;20080;-36
2021/10/29 01:45:50;;;;;;;28.75;19.08;;;12.70;77.30;;;;;;5057979;28;20036;-40
2021/10/29 01:48:15;;;;;;;31.25;20.20;;;12.70;77.40;;;;;;5057437;28;20051;-39
2021/10/29 01:50:41;;;;;;;27.70;17.60;;;12.70;77.50;;;;;;5058034;28;20065;-34
2021/10/29 01:53:06;;;;;;;35.00;19.23;;;12.70;77.60;;;;;;5056284;28;20045;-39
2021/10/29 01:55:32;;;;;;;31.17;19.77;;;12.70;77.50;;;;;;5057318;28;20053;-34
2021/10/29 01:57:58;;;;;;;31.50;19.35;;;12.70;77.60;;;;;;5057564;28;20037;-34
2021/10/29 02:00:23;;;;;;;28.38;17.98;;;12.70;77.60;;;;;;5057781;28;20219;-34
2021/10/29 02:02:49;;;;;;;33.45;19.58;;;12.60;77.60;;;;;;5057438;28;20033;-39
2021/10/29 02:05:15;;;;;;;29.02;18.77;;;12.70;77.80;;;;;;5057762;28;20057;-34
2021/10/29 02:07:40;;;;;;;25.33;17.08;;;12.60;77.70;;;;;;5057241;28;20128;-34
2021/10/29 02:10:07;;;;;;;31.33;19.20;;;12.60;77.90;;;;;;5057713;28;20064;-34
2021/10/29 02:12:33;;;;;;;29.80;19.90;;;12.60;77.90;;;;;;5056895;28;20041;-39
2021/10/29 02:14:58;;;;;;;28.05;17.90;;;12.60;77.90;;;;;;5057145;28;20163;-39
2021/10/29 02:17:25;;;;;;;29.77;19.17;;;12.50;78.00;;;;;;5056847;28;20048;-39
2021/10/29 02:19:52;;;;;;;28.30;17.50;;;12.60;78.30;;;;;;5057269;28;20040;-34
2021/10/29 02:22:17;;;;;;;29.73;17.83;;;12.60;78.40;;;;;;5056763;28;20111;-40
2021/10/29 02:24:43;;;;;;;30.23;18.70;;;12.60;78.40;;;;;;5057296;28;20110;-35
2021/10/29 02:27:08;;;;;;;28.80;18.55;;;12.60;78.60;;;;;;5056786;28;20033;-40
2021/10/29 02:29:35;;;;;;;28.15;17.92;;;12.60;78.70;;;;;;5057107;28;20035;-35
2021/10/29 02:32:00;;;;;;;29.00;19.10;;;12.60;78.70;;;;;;5056603;28;20079;-40
2021/10/29 02:34:26;;;;;;;28.30;19.42;;;12.60;78.80;;;;;;5056134;28;20032;-34
2021/10/29 02:36:52;;;;;;;29.52;18.67;;;12.60;78.90;;;;;;5055562;28;20047;-35
2021/10/29 02:39:18;;;;;;;28.48;19.23;;;12.60;78.90;;;;;;5056851;28;20033;-39
2021/10/29 02:41:43;;;;;;;29.42;18.85;;;12.60;78.90;;;;;;5056353;28;20048;-42
2021/10/29 02:44:09;;;;;;;25.98;17.40;;;12.60;78.90;;;;;;5056758;28;20025;-35
2021/10/29 02:46:36;;;;;;;34.10;18.85;;;12.60;78.80;;;;;;5056149;28;20070;-40
2021/10/29 02:49:02;;;;;;;32.85;19.38;;;12.70;78.90;;;;;;5056541;28;20033;-35
2021/10/29 02:51:30;;;;;;;29.88;19.80;;;12.70;78.70;;;;;;5056145;28;20077;-36
2021/10/29 02:53:56;;;;;;;33.13;20.95;;;12.70;78.70;;;;;;5056817;28;20429;-34
2021/10/29 02:56:21;;;;;;;33.00;20.00;;;12.70;78.60;;;;;;5056034;28;20068;-40
2021/10/29 02:58:47;;;;;;;32.83;20.52;;;12.70;78.50;;;;;;5056257;28;20041;-42
2021/10/29 03:01:13;;;;;;;27.98;19.45;;;12.70;78.40;;;;;;5055372;28;20032;-33
2021/10/29 03:03:38;;;;;;;32.60;20.52;;;12.70;78.30;;;;;;5056143;28;20025;-38
2021/10/29 03:06:04;;;;;;;31.13;19.65;;;12.70;78.30;;;;;;5056319;28;20029;-33
2021/10/29 03:08:30;;;;;;;31.60;20.45;;;12.60;78.20;;;;;;5056037;28;20049;-39
2021/10/29 03:10:55;;;;;;;31.67;20.45;;;12.60;78.30;;;;;;5056150;28;20040;-39
2021/10/29 03:13:22;;;;;;;45.22;21.05;;;12.60;78.80;;;;;;5055908;28;20100;-35
2021/10/29 03:15:49;;;;;;;35.10;22.58;;;12.60;78.30;;;;;;5056497;28;20041;-36
2021/10/29 03:18:16;;;;;;;33.63;21.17;;;12.60;78.50;;;;;;5055988;28;20099;-40
2021/10/29 03:20:42;;;;;;;35.53;21.42;;;12.60;78.50;;;;;;5056274;28;20090;-34
2021/10/29 03:23:08;;;;;;;31.77;20.40;;;12.50;78.50;;;;;;5055741;28;20029;-35
2021/10/29 03:25:34;;;;;;;34.90;20.42;;;12.50;78.40;;;;;;5056150;28;20083;-35
2021/10/29 03:27:59;;;;;;;30.58;19.67;;;12.50;78.40;;;;;;5055650;28;20111;-35
2021/10/29 03:30:26;;;;;;;29.30;20.52;;;12.50;78.40;;;;;;5054549;28;20040;-35
2021/10/29 03:32:54;;;;;;;32.67;20.55;;;12.40;78.20;;;;;;5055672;28;20064;-38
2021/10/29 03:35:20;;;;;;;31.98;21.80;;;12.40;78.10;;;;;;5056130;28;20048;-34
2021/10/29 03:43:19;;;;;;;32.90;19.95;;;12.20;77.90;;;;;;5055669;28;20383;-39
2021/10/29 03:46:03;;;;;;;35.28;21.30;;;12.10;77.80;;;;;;5055953;28;20051;-34
2021/10/29 03:54:16;;;;;;;35.20;22.08;;;11.90;77.70;;;;;;5050794;28;20045;-39
2021/10/29 03:56:44;;;;;;;33.05;20.88;;;11.80;77.90;;;;;;5055486;28;20106;-39
2021/10/29 03:59:10;;;;;;;34.92;22.30;;;11.70;78.10;;;;;;5055326;28;20037;-39
2021/10/29 04:01:37;;;;;;;41.63;23.45;;;11.60;78.20;;;;;;5055350;28;20037;-40
2021/10/29 04:04:03;;;;;;;36.30;21.52;;;11.60;78.30;;;;;;5055558;28;20033;-34
2021/10/29 04:06:29;;;;;;;42.47;22.20;;;11.50;78.30;;;;;;5053760;28;20079;-36
2021/10/29 04:08:54;;;;;;;34.00;20.92;;;11.40;78.30;;;;;;5055281;28;20040;-38
2021/10/29 04:11:23;;;;;;;39.75;23.52;;;11.40;78.20;;;;;;5055219;28;20044;-39
2021/10/29 04:13:48;;;;;;;36.63;23.05;;;11.30;78.20;;;;;;5055145;28;20033;-35
2021/10/29 04:16:14;;;;;;;36.78;20.45;;;11.30;78.70;;;;;;5055286;28;20040;-34
2021/10/29 04:18:40;;;;;;;32.08;21.10;;;11.20;79.20;;;;;;5055115;28;20033;-34
2021/10/29 04:21:06;;;;;;;36.47;22.85;;;11.20;79.50;;;;;;5055310;28;20482;-39
2021/10/29 04:23:33;;;;;;;34.33;21.70;;;11.20;79.60;;;;;;5054938;28;20025;-39
2021/10/29 04:25:59;;;;;;;35.78;22.85;;;11.10;79.90;;;;;;5054900;28;20040;-39
2021/10/29 04:28:26;;;;;;;38.22;21.92;;;11.20;80.40;;;;;;5055202;28;20029;-39
2021/10/29 04:30:52;;;;;;;34.63;21.95;;;11.20;80.90;;;;;;5055405;28;20124;-39
2021/10/29 04:33:19;;;;;;;31.67;21.05;;;11.20;81.20;;;;;;5054882;28;20029;-34
2021/10/29 04:35:47;;;;;;;34.00;20.60;;;11.20;82.00;;;;;;5055533;28;20120;-39
2021/10/29 04:38:14;;;;;;;32.95;20.75;;;11.20;81.90;;;;;;5055125;28;20041;-34
2021/10/29 04:40:41;;;;;;;37.70;22.75;;;11.20;82.10;;;;;;5055216;28;20040;-34
2021/10/29 04:43:08;;;;;;;35.17;22.15;;;11.30;82.40;;;;;;5054994;28;20033;-35
2021/10/29 04:45:34;;;;;;;47.40;26.73;;;11.40;82.70;;;;;;5055239;28;20112;-34
2021/10/29 04:48:01;;;;;;;43.13;25.63;;;11.40;83.10;;;;;;5054533;28;20029;-39
2021/10/29 04:50:28;;;;;;;37.25;23.27;;;11.40;83.20;;;;;;5055215;28;20036;-41
2021/10/29 04:52:54;;;;;;;39.65;22.05;;;11.40;83.40;;;;;;5054918;28;20099;-38
2021/10/29 04:55:20;;;;;;;43.28;24.02;;;11.50;83.40;;;;;;5054745;28;20055;-40
2021/10/29 04:57:46;;;;;;;39.97;21.55;;;11.50;83.50;;;;;;5056982;28;20116;-35
2021/10/29 05:00:12;;;;;;;43.28;23.40;;;11.60;83.40;;;;;;5058669;28;20366;-40
2021/10/29 05:02:38;;;;;;;40.33;24.90;;;11.60;83.40;;;;;;5057805;28;20449;-40
2021/10/29 05:05:06;;;;;;;46.00;24.35;;;11.70;83.40;;;;;;5058571;28;20021;-34
2021/10/29 05:07:32;;;;;;;43.72;23.88;;;11.70;83.40;;;;;;5057821;28;20029;-34
2021/10/29 05:09:58;;;;;;;39.00;22.73;;;11.70;83.40;;;;;;5058343;28;20029;-33
2021/10/29 05:12:25;;;;;;;44.55;23.52;;;11.70;83.30;;;;;;5058027;28;20061;-36
2021/10/29 05:14:51;;;;;;;46.80;24.65;;;11.80;83.40;;;;;;5058237;28;20371;-34
2021/10/29 05:17:17;;;;;;;39.88;23.02;;;11.80;83.50;;;;;;5058078;28;20037;-34
2021/10/29 05:19:42;;;;;;;40.45;24.27;;;11.80;83.50;;;;;;5058354;28;20305;-39
2021/10/29 05:22:08;;;;;;;46.92;24.10;;;11.80;83.50;;;;;;5058321;28;20413;-39
2021/10/29 05:24:34;;;;;;;42.67;22.23;;;11.90;83.50;;;;;;5058196;28;20358;-39
2021/10/29 05:27:00;;;;;;;49.92;23.63;;;11.90;83.40;;;;;;5057473;28;20135;-35
2021/10/29 05:29:25;;;;;;;46.22;23.42;;;11.90;83.40;;;;;;5057899;28;20119;-34
2021/10/29 05:31:52;;;;;;;44.80;23.73;;;11.90;83.40;;;;;;5052805;28;20064;-39
2021/10/29 05:34:18;;;;;;;65.10;23.98;;;11.90;83.50;;;;;;5057844;28;20036;-39
2021/10/29 05:36:44;;;;;;;41.47;23.00;;;11.90;83.60;;;;;;5057290;28;20043;-39
2021/10/29 05:39:10;;;;;;;46.97;25.92;;;12.00;83.80;;;;;;5057612;28;20029;-39
2021/10/29 05:41:36;;;;;;;46.00;23.40;;;12.00;84.00;;;;;;5056892;28;20433;-34
2021/10/29 05:44:02;;;;;;;51.60;23.50;;;12.00;84.00;;;;;;5057634;28;20367;-34
2021/10/29 05:46:31;;;;;;;105.78;22.75;;;12.00;84.00;;;;;;5057063;28;20083;-39
2021/10/29 05:48:58;;;;;;;88.65;24.38;;;12.00;83.90;;;;;;5057338;28;20048;-34
2021/10/29 05:51:26;;;;;;;61.42;23.13;;;12.00;83.80;;;;;;5057093;28;20060;-41
2021/10/29 05:54:06;;;;;;;63.58;24.55;;;12.00;83.90;;;;;;5057213;28;20028;-35
2021/10/29 05:56:32;;;;;;;57.30;22.85;;;12.00;84.20;;;;;;5057117;28;20465;-36
2021/10/29 05:59:03;;;;;;;60.72;20.10;;;12.00;84.30;;;;;;5056973;28;20060;-35
2021/10/29 06:01:29;;;;;;;82.50;22.50;;;12.00;84.40;;;;;;5056614;28;20040;-35
2021/10/29 06:03:54;;;;;;;39.30;19.60;;;12.00;84.40;;;;;;5057143;28;20021;-39
2021/10/29 06:06:20;;;;;;;100.97;20.67;;;12.00;84.40;;;;;;5056547;28;20029;-34
2021/10/29 06:08:46;;;;;;;129.40;22.33;;;12.10;84.30;;;;;;5055539;28;20036;-40
2021/10/29 06:11:11;;;;;;;241.98;26.92;;;12.10;84.30;;;;;;5056726;28;20033;-34
2021/10/29 06:13:37;;;;;;;105.47;21.83;;;12.10;84.30;;;;;;5056438;28;20028;-41
2021/10/29 06:16:03;;;;;;;110.32;21.45;;;12.10;84.20;;;;;;5056808;28;20323;-36
2021/10/29 06:18:28;;;;;;;72.80;18.52;;;12.10;84.30;;;;;;5056319;28;20017;-34
2021/10/29 06:20:56;;;;;;;67.25;20.20;;;12.00;84.30;;;;;;5056418;28;20040;-34
2021/10/29 06:23:26;;;;;;;97.40;20.67;;;12.00;84.40;;;;;;5056715;28;20048;-40
2021/10/29 06:25:55;;;;;;;84.47;20.23;;;12.00;84.60;;;;;;5057104;28;20166;-41
2021/10/29 06:28:28;;;;;;;44.45;17.73;;;12.00;85.10;;;;;;5056057;28;20013;-40
2021/10/29 06:30:55;;;;;;;135.15;21.52;;;12.00;84.90;;;;;;5056094;28;20055;-34
2021/10/29 06:33:23;;;;;;;149.63;24.58;;;12.00;85.00;;;;;;5055914;28;20035;-40
2021/10/29 06:35:49;;;;;;;69.53;20.63;;;12.00;85.00;;;;;;5056529;28;20029;-34
2021/10/29 06:38:16;;;;;;;71.03;21.30;;;12.10;85.30;;;;;;5056426;28;20124;-39
2021/10/29 06:40:44;;;;;;;68.88;20.35;;;12.10;85.60;;;;;;5056469;28;20489;-40
2021/10/29 06:43:24;;;;;;;61.75;19.30;;;12.10;85.40;;;;;;5054739;28;20025;-40
2021/10/29 07:03:08;;;;;;;55.28;17.65;;;12.20;84.80;;;;;;5055790;28;20366;-34
2021/10/29 07:41:24;;;;;;;60.78;14.57;;;12.40;83.70;;;;;;5055566;28;20330;-34
2021/10/29 07:43:52;;;;;;;42.67;14.25;;;12.40;83.60;;;;;;5055076;28;20108;-39
2021/10/29 07:46:18;;;;;;;45.85;14.25;;;12.40;83.40;;;;;;5055029;28;20033;-40
2021/10/29 07:48:45;;;;;;;46.38;15.75;;;12.40;83.30;;;;;;5053896;28;20031;-33
2021/10/29 07:51:11;;;;;;;44.00;15.85;;;12.40;83.10;;;;;;5055393;28;20087;-34
2021/10/29 07:53:37;;;;;;;136.32;20.33;;;12.40;83.10;;;;;;5055246;28;20029;-39
2021/10/29 07:56:05;;;;;;;32.30;15.93;;;12.40;83.00;;;;;;5054997;28;20053;-35
2021/10/29 07:58:32;;;;;;;80.45;14.93;;;12.40;83.30;;;;;;5053857;28;20440;-40
2021/10/29 08:01:00;;;;;;;27.05;13.85;;;12.50;83.10;;;;;;5055370;28;20036;-34
2021/10/29 08:03:26;;;;;;;25.48;13.48;;;12.40;83.00;;;;;;5055196;28;20104;-39
2021/10/29 08:05:52;;;;;;;35.72;16.17;;;12.40;83.10;;;;;;5055227;28;20047;-41
2021/10/29 08:08:19;;;;;;;49.13;17.05;;;12.50;83.20;;;;;;5054632;28;20021;-41
2021/10/29 08:10:46;;;;;;;34.22;17.35;;;12.50;83.30;;;;;;5055523;28;20164;-35
2021/10/29 08:13:12;;;;;;;65.30;17.88;;;12.50;83.30;;;;;;5055099;28;20037;-39
2021/10/29 08:15:39;;;;;;;45.78;17.45;;;12.50;83.10;;;;;;5055528;28;20036;-35
2021/10/29 08:18:07;;;;;;;91.28;19.52;;;12.50;83.30;;;;;;5055021;28;20306;-39
2021/10/29 08:20:33;;;;;;;42.70;17.67;;;12.50;83.00;;;;;;5055060;28;20303;-39
2021/10/29 08:22:59;;;;;;;32.40;16.55;;;12.60;83.00;;;;;;5054554;28;20040;-39
2021/10/29 08:25:25;;;;;;;27.98;15.63;;;12.50;82.90;;;;;;5055054;28;20025;-33
2021/10/29 08:27:52;;;;;;;35.88;16.95;;;12.60;83.20;;;;;;5054909;28;20037;-38
2021/10/29 08:30:18;;;;;;;30.70;16.80;;;12.60;83.10;;;;;;5055384;28;20037;-40
2021/10/29 08:32:46;;;;;;;28.15;16.70;;;12.60;83.30;;;;;;5056600;28;20311;-40
2021/10/29 08:35:12;;;;;;;39.47;16.75;;;12.70;83.40;;;;;;5058942;28;20037;-33
2021/10/29 08:37:40;;;;;;;31.20;16.48;;;12.70;82.90;;;;;;5058402;28;20037;-40
2021/10/29 08:40:07;;;;;;;36.75;18.02;;;12.70;82.80;;;;;;5058773;28;20317;-40
2021/10/29 08:42:33;;;;;;;44.45;18.50;;;12.70;82.60;;;;;;5058112;28;20033;-41
2021/10/29 08:45:01;;;;;;;77.93;21.50;;;12.80;82.60;;;;;;5058949;28;20398;-40
2021/10/29 08:47:27;;;;;;;42.15;18.73;;;12.80;82.50;;;;;;5058245;28;20037;-39
2021/10/29 08:49:53;;;;;;;31.70;18.48;;;12.80;82.50;;;;;;5058229;28;20383;-40
2021/10/29 08:52:21;;;;;;;27.40;15.90;;;12.90;82.70;;;;;;5058200;28;20075;-36
2021/10/29 08:54:49;;;;;;;22.30;14.10;;;12.90;82.60;;;;;;5057047;28;20053;-39
2021/10/29 08:57:16;;;;;;;23.08;11.18;;;13.00;82.60;;;;;;5058286;28;20417;-35
2021/10/29 08:59:45;;;;;;;36.00;13.60;;;13.00;82.00;;;;;;5058472;28;20029;-40
2021/10/29 09:32:43;;;;;;;28.08;16.88;;;13.30;80.60;;;;;;5057422;28;20040;-35
2021/10/29 09:35:16;;;;;;;24.95;15.88;;;13.30;80.40;;;;;;5057961;28;20332;-42
2021/10/29 09:38:03;;;;;;;27.73;15.60;;;13.30;80.50;;;;;;5057588;28;20040;-36
2021/10/29 09:40:35;;;;;;;41.58;16.65;;;13.30;80.00;;;;;;5057766;28;20316;-39
2021/10/29 09:43:10;;;;;;;27.02;15.70;;;13.30;79.70;;;;;;5057274;28;20491;-35
2021/10/29 09:45:35;;;;;;;25.58;14.85;;;13.30;79.60;;;;;;5057910;28;20039;-39
2021/10/29 09:48:19;;;;;;;24.65;16.05;;;13.20;79.60;;;;;;5056766;28;20025;-36
2021/10/29 09:50:52;;;;;;;26.52;13.85;;;13.30;79.60;;;;;;5057653;28;20397;-40
2021/10/29 09:58:52;;;;;;;23.73;16.07;;;13.30;79.50;;;;;;5057430;28;20124;-35
2021/10/29 10:01:19;;;;;;;;;;;13.30;80.00;;;;;;5057519;28;20269;-34
2021/10/29 10:03:48;;;;;;;25.45;15.15;;;13.30;79.30;;;;;;5056884;28;20347;-42
2021/10/29 10:06:15;;;;;;;36.75;18.95;;;13.30;79.50;;;;;;5057314;28;20033;-35
2021/10/29 10:08:41;;;;;;;38.80;23.88;;;13.20;79.50;;;;;;5056701;28;20033;-39
2021/10/29 10:11:11;;;;;;;27.90;17.38;;;13.30;79.50;;;;;;5057283;28;20036;-40
2021/10/29 10:13:40;;;;;;;28.77;15.48;;;13.30;79.60;;;;;;5056724;28;20021;-34
2021/10/29 10:16:07;;;;;;;29.98;15.50;;;13.30;79.50;;;;;;5057184;28;20040;-33
2021/10/29 10:18:33;;;;;;;24.73;14.77;;;13.30;79.60;;;;;;5056705;28;20313;-39
2021/10/29 10:21:02;;;;;;;24.25;13.93;;;13.30;80.10;;;;;;5056302;28;20076;-39
2021/10/29 10:23:34;;;;;;;19.58;12.60;;;13.30;79.50;;;;;;5056453;28;20025;-34
2021/10/29 10:46:19;;;;;;;22.10;12.85;;;13.40;78.50;;;;;;5056604;28;20044;-34
2021/10/29 10:48:58;;;;;;;22.90;13.25;;;13.40;78.40;;;;;;5056354;28;20033;-40
2021/10/29 10:51:41;;;;;;;21.60;13.00;;;13.40;78.40;;;;;;5056068;28;20043;-38
2021/10/29 10:54:42;;;;;;;20.63;12.57;;;13.40;78.30;;;;;;5056033;28;20389;-40
2021/10/29 11:00:23;;;;;;;16.58;11.32;;;13.40;78.40;;;;;;5056535;28;20091;-40
2021/10/29 11:10:58;;;;;;;22.75;13.23;;;13.30;78.20;;;;;;5056308;28;20040;-36
2021/10/29 11:13:49;;;;;;;20.70;13.05;;;13.30;78.30;;;;;;5055590;28;20444;-40
2021/10/29 11:16:26;;;;;;;;;;;13.30;78.40;;;;;;5056535;28;20040;-41
2021/10/29 11:18:58;;;;;;;19.75;12.23;;;13.30;78.30;;;;;;5055862;28;20002;-40
2021/10/29 11:21:35;;;;;;;48.80;11.82;;;13.30;78.50;;;;;;5054308;28;20330;-41
2021/10/29 11:24:03;;;;;;;27.17;12.50;;;13.30;78.20;;;;;;5055970;28;20032;-34
2021/10/29 11:26:33;;;;;;;20.83;12.25;;;13.30;78.20;;;;;;5055379;28;20040;-41
2021/10/29 11:29:02;;;;;;;24.27;12.55;;;13.30;78.30;;;;;;5055760;28;20043;-41
2021/10/29 11:31:34;;;;;;;20.15;11.43;;;13.30;78.20;;;;;;5055383;28;20102;-39
2021/10/29 11:34:06;;;;;;;20.45;12.90;;;13.30;78.30;;;;;;5055844;28;20024;-34
2021/10/29 11:36:33;;;;;;;30.77;13.15;;;13.30;78.40;;;;;;5055545;28;20037;-35
2021/10/29 11:39:00;;;;;;;22.55;12.20;;;13.30;78.30;;;;;;5055686;28;20024;-34
2021/10/29 11:41:31;;;;;;;19.33;12.05;;;13.30;78.20;;;;;;5055326;28;20324;-39
2021/10/29 11:44:03;;;;;;;19.50;12.32;;;13.30;78.20;;;;;;5055442;28;20393;-40
2021/10/29 11:46:30;;;;;;;27.55;14.13;;;13.40;78.20;;;;;;5054872;28;20029;-35
2021/10/29 11:49:25;;;;;;;25.73;13.32;;;13.40;78.20;;;;;;5055109;28;20021;-34
2021/10/29 11:51:53;;;;;;;21.23;12.65;;;13.40;78.10;;;;;;5054744;28;20069;-38
2021/10/29 11:54:31;;;;;;;17.23;10.85;;;13.40;78.10;;;;;;5055235;28;20048;-35
2021/10/29 12:07:27;;;;;;;25.50;11.02;;;13.40;77.30;;;;;;5056815;28;20107;-37
2021/10/29 12:09:55;;;;;;;23.83;11.15;;;13.40;77.30;;;;;;5059584;28;20137;-38
2021/10/29 12:12:27;;;;;;;21.30;10.38;;;13.40;77.30;;;;;;5059009;28;20032;-41
2021/10/29 12:14:56;;;;;;;44.38;11.60;;;13.40;77.20;;;;;;5059175;28;20033;-39
2021/10/29 12:17:34;;;;;;;19.05;10.25;;;13.30;77.10;;;;;;5059041;28;20060;-40
2021/10/29 12:20:02;;;;;;;21.27;9.40;;;13.30;77.10;;;;;;5059400;28;20036;-38
2021/10/29 12:22:41;;;;;;;21.73;10.40;;;13.20;77.10;;;;;;5057757;28;20033;-35
2021/10/29 12:25:27;;;;;;;75.22;11.43;;;13.20;77.10;;;;;;5059311;28;20066;-34
2021/10/29 12:59:16;;;;;;;15.50;9.07;;;12.70;76.80;;;;;;5058501;28;20040;-37
2021/10/29 13:01:56;;;;;;;16.55;9.13;;;12.60;77.20;;;;;;5058325;28;20029;-34
2021/10/29 13:04:39;;;;;;;33.78;11.57;;;12.50;77.30;;;;;;5058598;28;20032;-35
2021/10/29 13:07:06;;;;;;;12.60;8.02;;;12.50;77.40;;;;;;5058168;28;20034;-35
2021/10/29 13:09:36;;;;;;;32.22;9.75;;;12.40;77.30;;;;;;5058164;28;20040;-34
2021/10/29 13:12:18;;;;;;;16.77;9.10;;;12.40;77.90;;;;;;5058161;28;20025;-34
2021/10/29 13:14:48;;;;;;;17.65;8.80;;;12.40;77.50;;;;;;5057956;28;20033;-39
2021/10/29 13:17:19;;;;;;;;;;;12.30;77.70;;;;;;5058086;28;20037;-38
2021/10/29 13:55:03;;;;;;;34.25;14.50;;;11.70;79.80;;;;;;5057183;28;20044;-40
2021/10/29 14:32:43;;;;;;;33.92;19.23;;;11.80;83.40;;;;;;5054034;28;20033;-33
2021/10/29 14:35:18;;;;;;;28.40;17.58;;;11.80;83.30;;;;;;5056528;28;20056;-40
2021/10/29 14:37:58;;;;;;;38.35;20.55;;;11.90;83.40;;;;;;5056441;28;20029;-40
2021/10/29 14:43:00;;;;;;;35.33;20.73;;;11.90;83.50;;;;;;5056274;28;20432;-40
2021/10/29 15:02:35;;;;;;;46.05;16.83;;;11.90;83.60;;;;;;5055770;28;20048;-32
2021/10/29 15:18:24;;;;;;;16.10;11.15;;;11.80;83.60;;;;;;5055234;28;20037;-32
2021/10/29 15:26:41;;;;;;;33.10;15.93;;;11.70;83.80;;;;;;5055386;28;20394;-41
2021/10/29 15:45:33;;;;;;;24.55;13.95;;;11.60;84.20;;;;;;5055755;28;20082;-34
2021/10/29 15:50:32;;;;;;;37.20;16.80;;;11.50;84.40;;;;;;5055698;28;20036;-34
2021/10/29 15:52:58;;;;;;;25.55;13.45;;;11.50;84.70;;;;;;5055214;28;20033;-34
2021/10/29 15:55:34;;;;;;;28.15;14.02;;;11.60;84.90;;;;;;5055252;28;20459;-34
2021/10/29 15:58:10;;;;;;;31.27;13.70;;;11.50;84.90;;;;;;5055408;28;20037;-41
2021/10/29 16:19:32;;;;;;;45.95;11.23;;;11.40;84.60;;;;;;5054506;28;20461;-33
2021/10/29 16:21:59;;;;;;;34.53;12.77;;;11.40;84.60;;;;;;5054731;28;20021;-34
2021/10/29 16:24:25;;;;;;;22.38;11.05;;;11.40;84.40;;;;;;5055214;28;20465;-32
2021/10/29 16:26:53;;;;;;;19.27;10.77;;;11.40;84.50;;;;;;5054727;28;20025;-42
2021/10/29 16:29:23;;;;;;;18.27;9.77;;;11.40;84.50;;;;;;5055482;28;20262;-33
2021/10/29 16:31:49;;;;;;;49.10;14.80;;;11.40;84.40;;;;;;5055025;28;20091;-34
2021/10/29 16:34:15;;;;;;;21.77;10.88;;;11.40;84.40;;;;;;5055346;28;20356;-40
2021/10/29 16:36:41;;;;;;;20.70;12.05;;;11.30;84.30;;;;;;5054623;28;20441;-41
2021/10/29 16:39:07;;;;;;;17.98;10.07;;;11.30;84.30;;;;;;5054924;28;20025;-40
2021/10/29 16:41:33;;;;;;;44.55;10.55;;;11.30;84.40;;;;;;5054769;28;20033;-33
2021/10/29 16:43:59;;;;;;;15.75;8.93;;;11.20;84.40;;;;;;5055178;28;20077;-41
2021/10/29 16:46:25;;;;;;;38.90;10.07;;;11.20;84.40;;;;;;5053509;28;20037;-41
2021/10/29 16:48:51;;;;;;;17.58;10.70;;;11.20;84.40;;;;;;5054685;28;20028;-41
2021/10/29 16:51:17;;;;;;;17.23;7.95;;;11.20;84.30;;;;;;5054852;28;20035;-38
2021/10/29 16:53:44;;;;;;;44.08;13.55;;;11.20;84.20;;;;;;5056604;28;20302;-41
2021/10/29 16:56:12;;;;;;;21.23;8.68;;;11.20;83.80;;;;;;5058304;28;20053;-41
2021/10/29 16:58:38;;;;;;;25.30;9.55;;;11.10;83.90;;;;;;5058489;28;20112;-41
2021/10/29 17:01:04;;;;;;;42.28;10.15;;;11.10;84.10;;;;;;5058621;28;20311;-34
2021/10/29 17:03:29;;;;;;;18.48;8.18;;;11.00;84.10;;;;;;5058125;28;20083;-34
2021/10/29 17:05:55;;;;;;;14.98;8.32;;;11.00;84.10;;;;;;5058313;28;20405;-41
2021/10/29 17:08:21;;;;;;;15.23;8.60;;;11.00;84.30;;;;;;5058006;28;20029;-41
2021/10/29 17:10:47;;;;;;;32.17;18.00;;;11.00;84.60;;;;;;5058713;28;20029;-36
2021/10/29 17:13:14;;;;;;;56.13;15.55;;;10.90;84.70;;;;;;5058066;28;20029;-32
2021/10/29 17:15:39;;;;;;;44.47;19.48;;;10.90;84.80;;;;;;5058741;28;20413;-41
2021/10/29 17:18:06;;;;;;;36.33;11.38;;;10.90;84.90;;;;;;5058154;28;20044;-33
2021/10/29 17:20:32;;;;;;;40.38;19.02;;;10.90;84.90;;;;;;5058564;28;20085;-44
2021/10/29 17:22:58;;;;;;;49.35;25.63;;;10.90;85.00;;;;;;5057923;28;20037;-41
2021/10/29 17:25:24;;;;;;;55.90;13.13;;;10.90;85.20;;;;;;5058667;28;20028;-33
2021/10/29 17:27:50;;;;;;;27.50;11.13;;;10.80;84.90;;;;;;5058104;28;20033;-34
2021/10/29 17:30:17;;;;;;;172.00;22.05;;;10.80;84.70;;;;;;5058313;28;20068;-33
2021/10/29 17:32:46;;;;;;;67.13;15.18;;;10.80;84.80;;;;;;5058119;28;20041;-43
2021/10/29 17:35:13;;;;;;;61.50;14.93;;;10.80;85.00;;;;;;5058260;28;20056;-40
2021/10/29 17:37:39;;;;;;;70.20;15.05;;;10.70;85.20;;;;;;5057494;28;20436;-34
2021/10/29 17:40:08;;;;;;;35.10;13.23;;;10.70;85.20;;;;;;5058109;28;20036;-40
2021/10/29 17:42:35;;;;;;;37.30;16.45;;;10.70;85.30;;;;;;5057797;28;20086;-32
2021/10/29 17:45:01;;;;;;;37.70;16.55;;;10.60;85.50;;;;;;5058106;28;20033;-41
2021/10/29 17:47:28;;;;;;;31.80;13.80;;;10.60;85.70;;;;;;5057332;28;20037;-33
2021/10/29 17:49:55;;;;;;;23.77;13.52;;;10.60;85.80;;;;;;5058038;28;20040;-32
2021/10/29 17:52:25;;;;;;;33.97;13.85;;;10.60;86.00;;;;;;5057304;28;20065;-40